sensor_id;sensor_type;location;lat;lon;timestamp;P1;durP1;ratioP1;P2;durP2;ratioP2
249;SDS011;109;19.806;-70.704;2023-04-08T00:00:37;8.83;;;2.90;;
249;SDS011;109;19.806;-70.704;2023-04-08T00:03:03;10.30;;;3.00;;
249;SDS011;109;19.806;-70.704;2023-04-08T00:05:30;15.70;;;3.40;;
249;SDS011;109;19.806;-70.704;2023-04-08T00:07:56;13.33;;;3.80;;
249;SDS011;109;19.806;-70.704;2023-04-08T00:10:23;9.80;;;3.83;;
249;SDS011;109;19.806;-70.704;2023-04-08T00:12:51;6.80;;;2.90;;
249;SDS011;109;19.806;-70.704;2023-04-08T00:15:17;9.33;;;3.23;;
249;SDS011;109;19.806;-70.704;2023-04-08T00:17:44;7.87;;;3.00;;
249;SDS011;109;19.806;-70.704;2023-04-08T00:20:10;8.70;;;3.10;;
249;SDS011;109;19.806;-70.704;2023-04-08T00:22:36;12.20;;;2.83;;
249;SDS011;109;19.806;-70.704;2023-04-08T00:25:03;11.07;;;3.00;;
249;SDS011;109;19.806;-70.704;2023-04-08T00:27:34;10.33;;;3.17;;
249;SDS011;109;19.806;-70.704;2023-04-08T00:30:00;14.23;;;3.83;;
249;SDS011;109;19.806;-70.704;2023-04-08T00:32:28;7.23;;;2.73;;
249;SDS011;109;19.806;-70.704;2023-04-08T00:34:54;5.30;;;2.70;;
249;SDS011;109;19.806;-70.704;2023-04-08T00:37:21;17.83;;;3.03;;
249;SDS011;109;19.806;-70.704;2023-04-08T00:39:47;10.17;;;2.63;;
249;SDS011;109;19.806;-70.704;2023-04-08T00:42:14;7.23;;;2.50;;
249;SDS011;109;19.806;-70.704;2023-04-08T00:44:40;7.73;;;2.60;;
249;SDS011;109;19.806;-70.704;2023-04-08T00:47:14;9.20;;;2.80;;
249;SDS011;109;19.806;-70.704;2023-04-08T00:49:41;13.27;;;3.07;;
249;SDS011;109;19.806;-70.704;2023-04-08T00:52:15;13.30;;;2.87;;
249;SDS011;109;19.806;-70.704;2023-04-08T00:54:41;8.70;;;2.50;;
249;SDS011;109;19.806;-70.704;2023-04-08T00:57:15;13.43;;;3.07;;
249;SDS011;109;19.806;-70.704;2023-04-08T00:59:41;6.73;;;2.53;;
249;SDS011;109;19.806;-70.704;2023-04-08T01:02:18;6.67;;;2.40;;
249;SDS011;109;19.806;-70.704;2023-04-08T01:08:33;7.80;;;2.47;;
249;SDS011;109;19.806;-70.704;2023-04-08T01:11:10;3.23;;;2.10;;
249;SDS011;109;19.806;-70.704;2023-04-08T01:13:41;4.10;;;2.50;;
249;SDS011;109;19.806;-70.704;2023-04-08T01:16:16;6.40;;;2.37;;
249;SDS011;109;19.806;-70.704;2023-04-08T01:18:43;5.57;;;2.30;;
249;SDS011;109;19.806;-70.704;2023-04-08T01:21:19;5.40;;;2.40;;
249;SDS011;109;19.806;-70.704;2023-04-08T01:26:27;7.43;;;2.43;;
249;SDS011;109;19.806;-70.704;2023-04-08T01:28:55;18.53;;;2.40;;
249;SDS011;109;19.806;-70.704;2023-04-08T01:31:31;6.60;;;2.60;;
249;SDS011;109;19.806;-70.704;2023-04-08T01:33:58;7.60;;;2.80;;
249;SDS011;109;19.806;-70.704;2023-04-08T01:36:34;6.83;;;2.90;;
249;SDS011;109;19.806;-70.704;2023-04-08T01:39:02;6.83;;;2.67;;
249;SDS011;109;19.806;-70.704;2023-04-08T01:41:37;18.43;;;3.40;;
249;SDS011;109;19.806;-70.704;2023-04-08T01:44:19;5.00;;;2.10;;
249;SDS011;109;19.806;-70.704;2023-04-08T01:46:47;3.90;;;2.30;;
249;SDS011;109;19.806;-70.704;2023-04-08T01:49:22;7.40;;;2.60;;
249;SDS011;109;19.806;-70.704;2023-04-08T01:51:50;5.67;;;2.30;;
249;SDS011;109;19.806;-70.704;2023-04-08T01:54:26;6.93;;;2.70;;
249;SDS011;109;19.806;-70.704;2023-04-08T01:56:52;7.37;;;2.70;;
249;SDS011;109;19.806;-70.704;2023-04-08T01:59:28;4.93;;;2.50;;
249;SDS011;109;19.806;-70.704;2023-04-08T02:02:06;8.23;;;2.40;;
249;SDS011;109;19.806;-70.704;2023-04-08T02:04:34;8.63;;;2.47;;
249;SDS011;109;19.806;-70.704;2023-04-08T02:07:08;10.37;;;2.50;;
249;SDS011;109;19.806;-70.704;2023-04-08T02:09:34;5.97;;;2.17;;
249;SDS011;109;19.806;-70.704;2023-04-08T02:12:08;3.30;;;2.20;;
249;SDS011;109;19.806;-70.704;2023-04-08T02:14:35;5.27;;;2.20;;
249;SDS011;109;19.806;-70.704;2023-04-08T02:17:32;6.77;;;2.80;;
249;SDS011;109;19.806;-70.704;2023-04-08T02:22:58;12.83;;;3.40;;
249;SDS011;109;19.806;-70.704;2023-04-08T02:25:46;7.83;;;2.30;;
249;SDS011;109;19.806;-70.704;2023-04-08T02:28:16;9.30;;;2.33;;
249;SDS011;109;19.806;-70.704;2023-04-08T02:30:51;7.50;;;2.30;;
249;SDS011;109;19.806;-70.704;2023-04-08T02:33:20;14.37;;;2.60;;
249;SDS011;109;19.806;-70.704;2023-04-08T02:35:54;11.13;;;2.63;;
249;SDS011;109;19.806;-70.704;2023-04-08T02:38:22;9.00;;;2.50;;
249;SDS011;109;19.806;-70.704;2023-04-08T02:41:02;9.77;;;2.10;;
249;SDS011;109;19.806;-70.704;2023-04-08T02:43:42;10.13;;;2.83;;
249;SDS011;109;19.806;-70.704;2023-04-08T02:46:08;10.53;;;2.60;;
249;SDS011;109;19.806;-70.704;2023-04-08T02:48:43;12.23;;;2.87;;
249;SDS011;109;19.806;-70.704;2023-04-08T02:51:09;8.83;;;3.10;;
249;SDS011;109;19.806;-70.704;2023-04-08T02:53:43;6.90;;;2.50;;
249;SDS011;109;19.806;-70.704;2023-04-08T02:56:09;8.30;;;2.53;;
249;SDS011;109;19.806;-70.704;2023-04-08T02:58:43;6.60;;;2.10;;
249;SDS011;109;19.806;-70.704;2023-04-08T03:01:10;3.13;;;2.07;;
249;SDS011;109;19.806;-70.704;2023-04-08T03:03:43;5.60;;;2.60;;
249;SDS011;109;19.806;-70.704;2023-04-08T03:06:09;7.63;;;2.37;;
249;SDS011;109;19.806;-70.704;2023-04-08T03:08:42;4.27;;;2.40;;
249;SDS011;109;19.806;-70.704;2023-04-08T03:11:08;5.33;;;2.40;;
249;SDS011;109;19.806;-70.704;2023-04-08T03:13:41;4.83;;;2.50;;
249;SDS011;109;19.806;-70.704;2023-04-08T03:16:07;3.90;;;2.27;;
249;SDS011;109;19.806;-70.704;2023-04-08T03:18:40;6.23;;;2.50;;
249;SDS011;109;19.806;-70.704;2023-04-08T03:21:06;4.87;;;2.13;;
249;SDS011;109;19.806;-70.704;2023-04-08T03:23:39;7.63;;;2.63;;
249;SDS011;109;19.806;-70.704;2023-04-08T03:26:05;7.20;;;2.70;;
249;SDS011;109;19.806;-70.704;2023-04-08T03:28:38;3.60;;;1.93;;
249;SDS011;109;19.806;-70.704;2023-04-08T03:31:11;8.27;;;2.17;;
249;SDS011;109;19.806;-70.704;2023-04-08T03:33:44;5.80;;;2.30;;
249;SDS011;109;19.806;-70.704;2023-04-08T03:36:10;6.10;;;2.30;;
249;SDS011;109;19.806;-70.704;2023-04-08T03:38:44;3.80;;;2.13;;
249;SDS011;109;19.806;-70.704;2023-04-08T03:41:10;7.77;;;2.00;;
249;SDS011;109;19.806;-70.704;2023-04-08T03:43:43;5.57;;;2.50;;
249;SDS011;109;19.806;-70.704;2023-04-08T03:46:23;3.50;;;2.23;;
249;SDS011;109;19.806;-70.704;2023-04-08T03:48:49;8.80;;;2.53;;
249;SDS011;109;19.806;-70.704;2023-04-08T03:51:22;10.40;;;2.30;;
249;SDS011;109;19.806;-70.704;2023-04-08T03:53:48;8.17;;;2.40;;
249;SDS011;109;19.806;-70.704;2023-04-08T03:56:21;14.73;;;2.97;;
249;SDS011;109;19.806;-70.704;2023-04-08T03:58:47;13.87;;;3.43;;
249;SDS011;109;19.806;-70.704;2023-04-08T04:01:20;10.00;;;3.30;;
249;SDS011;109;19.806;-70.704;2023-04-08T04:03:46;17.73;;;2.70;;
249;SDS011;109;19.806;-70.704;2023-04-08T04:06:20;13.47;;;2.40;;
249;SDS011;109;19.806;-70.704;2023-04-08T04:08:46;13.87;;;2.70;;
249;SDS011;109;19.806;-70.704;2023-04-08T04:11:21;8.07;;;2.50;;
249;SDS011;109;19.806;-70.704;2023-04-08T04:13:47;9.30;;;2.33;;
249;SDS011;109;19.806;-70.704;2023-04-08T04:16:21;6.37;;;2.00;;
249;SDS011;109;19.806;-70.704;2023-04-08T04:18:47;4.53;;;2.20;;
249;SDS011;109;19.806;-70.704;2023-04-08T04:21:20;6.67;;;2.40;;
249;SDS011;109;19.806;-70.704;2023-04-08T04:23:46;9.83;;;2.20;;
249;SDS011;109;19.806;-70.704;2023-04-08T04:26:26;5.50;;;2.47;;
249;SDS011;109;19.806;-70.704;2023-04-08T04:28:59;6.67;;;2.43;;
249;SDS011;109;19.806;-70.704;2023-04-08T04:31:25;7.53;;;2.40;;
249;SDS011;109;19.806;-70.704;2023-04-08T04:33:58;3.90;;;2.10;;
249;SDS011;109;19.806;-70.704;2023-04-08T04:36:24;4.10;;;2.00;;
249;SDS011;109;19.806;-70.704;2023-04-08T04:38:57;4.60;;;2.23;;
249;SDS011;109;19.806;-70.704;2023-04-08T04:41:44;8.67;;;2.30;;
249;SDS011;109;19.806;-70.704;2023-04-08T04:44:20;5.73;;;2.10;;
249;SDS011;109;19.806;-70.704;2023-04-08T04:46:46;5.53;;;2.67;;
249;SDS011;109;19.806;-70.704;2023-04-08T04:49:19;3.80;;;2.20;;
249;SDS011;109;19.806;-70.704;2023-04-08T04:51:45;7.23;;;2.33;;
249;SDS011;109;19.806;-70.704;2023-04-08T04:54:18;5.83;;;2.40;;
249;SDS011;109;19.806;-70.704;2023-04-08T04:56:44;5.47;;;2.50;;
249;SDS011;109;19.806;-70.704;2023-04-08T04:59:18;10.90;;;2.90;;
249;SDS011;109;19.806;-70.704;2023-04-08T05:01:45;8.27;;;2.90;;
249;SDS011;109;19.806;-70.704;2023-04-08T05:04:18;7.13;;;2.57;;
249;SDS011;109;19.806;-70.704;2023-04-08T05:06:44;2.93;;;2.30;;
249;SDS011;109;19.806;-70.704;2023-04-08T05:09:18;5.33;;;2.70;;
249;SDS011;109;19.806;-70.704;2023-04-08T05:11:44;4.80;;;2.67;;
249;SDS011;109;19.806;-70.704;2023-04-08T05:14:18;9.27;;;3.00;;
249;SDS011;109;19.806;-70.704;2023-04-08T05:16:44;10.73;;;2.90;;
249;SDS011;109;19.806;-70.704;2023-04-08T05:19:17;7.23;;;2.73;;
249;SDS011;109;19.806;-70.704;2023-04-08T05:21:43;6.63;;;2.77;;
249;SDS011;109;19.806;-70.704;2023-04-08T05:24:16;9.20;;;2.83;;
249;SDS011;109;19.806;-70.704;2023-04-08T05:26:42;4.83;;;2.57;;
249;SDS011;109;19.806;-70.704;2023-04-08T05:29:15;10.20;;;3.20;;
249;SDS011;109;19.806;-70.704;2023-04-08T05:31:41;4.90;;;2.67;;
249;SDS011;109;19.806;-70.704;2023-04-08T05:34:14;5.23;;;2.57;;
249;SDS011;109;19.806;-70.704;2023-04-08T05:36:43;13.73;;;3.20;;
249;SDS011;109;19.806;-70.704;2023-04-08T05:39:17;6.50;;;2.80;;
249;SDS011;109;19.806;-70.704;2023-04-08T05:42:05;7.90;;;3.43;;
249;SDS011;109;19.806;-70.704;2023-04-08T05:44:39;7.00;;;3.90;;
249;SDS011;109;19.806;-70.704;2023-04-08T05:47:08;7.57;;;3.60;;
249;SDS011;109;19.806;-70.704;2023-04-08T05:49:42;10.60;;;4.80;;
249;SDS011;109;19.806;-70.704;2023-04-08T05:52:08;8.63;;;4.43;;
249;SDS011;109;19.806;-70.704;2023-04-08T05:54:42;9.13;;;4.93;;
249;SDS011;109;19.806;-70.704;2023-04-08T05:57:09;9.57;;;4.93;;
249;SDS011;109;19.806;-70.704;2023-04-08T05:59:42;8.50;;;3.97;;
249;SDS011;109;19.806;-70.704;2023-04-08T06:02:08;9.60;;;3.97;;
249;SDS011;109;19.806;-70.704;2023-04-08T06:04:42;7.40;;;3.80;;
249;SDS011;109;19.806;-70.704;2023-04-08T06:07:08;8.93;;;4.03;;
249;SDS011;109;19.806;-70.704;2023-04-08T06:09:42;7.17;;;3.40;;
249;SDS011;109;19.806;-70.704;2023-04-08T06:12:08;5.37;;;3.30;;
249;SDS011;109;19.806;-70.704;2023-04-08T06:14:41;8.37;;;3.53;;
249;SDS011;109;19.806;-70.704;2023-04-08T06:17:14;9.70;;;3.90;;
249;SDS011;109;19.806;-70.704;2023-04-08T06:19:47;9.07;;;3.63;;
249;SDS011;109;19.806;-70.704;2023-04-08T06:22:14;7.80;;;3.60;;
249;SDS011;109;19.806;-70.704;2023-04-08T06:24:47;7.67;;;4.00;;
249;SDS011;109;19.806;-70.704;2023-04-08T06:27:13;7.27;;;3.63;;
249;SDS011;109;19.806;-70.704;2023-04-08T06:29:47;7.93;;;3.50;;
249;SDS011;109;19.806;-70.704;2023-04-08T06:32:13;10.80;;;3.73;;
249;SDS011;109;19.806;-70.704;2023-04-08T06:34:47;6.37;;;3.10;;
249;SDS011;109;19.806;-70.704;2023-04-08T06:37:14;7.60;;;3.70;;
249;SDS011;109;19.806;-70.704;2023-04-08T06:39:47;7.20;;;3.30;;
249;SDS011;109;19.806;-70.704;2023-04-08T06:42:33;7.50;;;3.03;;
249;SDS011;109;19.806;-70.704;2023-04-08T06:45:27;6.77;;;3.57;;
249;SDS011;109;19.806;-70.704;2023-04-08T06:48:01;9.60;;;5.23;;
249;SDS011;109;19.806;-70.704;2023-04-08T06:50:27;8.33;;;4.03;;
249;SDS011;109;19.806;-70.704;2023-04-08T06:53:00;7.10;;;3.50;;
249;SDS011;109;19.806;-70.704;2023-04-08T06:55:26;5.90;;;3.17;;
249;SDS011;109;19.806;-70.704;2023-04-08T06:57:59;6.63;;;2.80;;
249;SDS011;109;19.806;-70.704;2023-04-08T07:00:26;4.17;;;2.97;;
249;SDS011;109;19.806;-70.704;2023-04-08T07:03:00;4.13;;;2.93;;
249;SDS011;109;19.806;-70.704;2023-04-08T07:05:26;5.73;;;2.83;;
249;SDS011;109;19.806;-70.704;2023-04-08T07:08:00;6.60;;;3.10;;
249;SDS011;109;19.806;-70.704;2023-04-08T07:10:26;6.63;;;3.13;;
249;SDS011;109;19.806;-70.704;2023-04-08T07:13:00;5.33;;;3.30;;
249;SDS011;109;19.806;-70.704;2023-04-08T07:15:34;5.70;;;2.97;;
249;SDS011;109;19.806;-70.704;2023-04-08T07:18:08;5.73;;;3.60;;
249;SDS011;109;19.806;-70.704;2023-04-08T07:20:35;7.60;;;2.90;;
249;SDS011;109;19.806;-70.704;2023-04-08T07:23:09;5.00;;;3.27;;
249;SDS011;109;19.806;-70.704;2023-04-08T07:25:35;7.37;;;3.27;;
249;SDS011;109;19.806;-70.704;2023-04-08T07:28:09;5.03;;;3.53;;
249;SDS011;109;19.806;-70.704;2023-04-08T07:30:35;4.90;;;3.53;;
249;SDS011;109;19.806;-70.704;2023-04-08T07:33:08;12.27;;;3.47;;
249;SDS011;109;19.806;-70.704;2023-04-08T07:35:34;7.60;;;3.53;;
249;SDS011;109;19.806;-70.704;2023-04-08T07:38:08;7.70;;;3.80;;
249;SDS011;109;19.806;-70.704;2023-04-08T07:40:36;7.53;;;3.90;;
249;SDS011;109;19.806;-70.704;2023-04-08T07:43:09;6.00;;;3.50;;
249;SDS011;109;19.806;-70.704;2023-04-08T07:45:49;7.27;;;3.90;;
249;SDS011;109;19.806;-70.704;2023-04-08T07:48:15;7.40;;;3.37;;
249;SDS011;109;19.806;-70.704;2023-04-08T07:50:48;4.80;;;3.60;;
249;SDS011;109;19.806;-70.704;2023-04-08T07:53:14;8.37;;;3.70;;
249;SDS011;109;19.806;-70.704;2023-04-08T07:55:47;5.63;;;3.60;;
249;SDS011;109;19.806;-70.704;2023-04-08T07:58:13;7.83;;;3.27;;
249;SDS011;109;19.806;-70.704;2023-04-08T08:00:46;9.00;;;4.30;;
249;SDS011;109;19.806;-70.704;2023-04-08T08:03:12;9.30;;;3.67;;
249;SDS011;109;19.806;-70.704;2023-04-08T08:05:46;8.40;;;3.90;;
249;SDS011;109;19.806;-70.704;2023-04-08T08:08:20;4.67;;;3.33;;
249;SDS011;109;19.806;-70.704;2023-04-08T08:10:53;6.90;;;3.27;;
249;SDS011;109;19.806;-70.704;2023-04-08T08:13:19;6.37;;;3.43;;
249;SDS011;109;19.806;-70.704;2023-04-08T08:15:53;4.67;;;3.20;;
249;SDS011;109;19.806;-70.704;2023-04-08T08:18:20;6.53;;;4.17;;
249;SDS011;109;19.806;-70.704;2023-04-08T08:20:53;6.03;;;3.60;;
249;SDS011;109;19.806;-70.704;2023-04-08T08:23:19;10.60;;;3.93;;
249;SDS011;109;19.806;-70.704;2023-04-08T08:25:59;6.43;;;3.30;;
249;SDS011;109;19.806;-70.704;2023-04-08T08:28:33;5.30;;;3.23;;
249;SDS011;109;19.806;-70.704;2023-04-08T08:30:59;7.50;;;3.40;;
249;SDS011;109;19.806;-70.704;2023-04-08T08:33:33;7.37;;;3.30;;
249;SDS011;109;19.806;-70.704;2023-04-08T08:36:00;7.87;;;3.97;;
249;SDS011;109;19.806;-70.704;2023-04-08T08:38:33;7.27;;;3.50;;
249;SDS011;109;19.806;-70.704;2023-04-08T08:40:59;6.70;;;3.40;;
249;SDS011;109;19.806;-70.704;2023-04-08T08:43:33;8.20;;;3.60;;
249;SDS011;109;19.806;-70.704;2023-04-08T08:46:14;6.10;;;3.57;;
249;SDS011;109;19.806;-70.704;2023-04-08T08:48:42;6.73;;;3.60;;
249;SDS011;109;19.806;-70.704;2023-04-08T08:51:16;5.50;;;3.50;;
249;SDS011;109;19.806;-70.704;2023-04-08T08:53:42;7.83;;;3.97;;
249;SDS011;109;19.806;-70.704;2023-04-08T08:56:16;6.53;;;3.67;;
249;SDS011;109;19.806;-70.704;2023-04-08T08:58:42;5.07;;;3.53;;
249;SDS011;109;19.806;-70.704;2023-04-08T09:04:13;4.10;;;3.90;;
249;SDS011;109;19.806;-70.704;2023-04-08T09:07:08;6.83;;;3.90;;
249;SDS011;109;19.806;-70.704;2023-04-08T09:09:48;15.53;;;3.87;;
249;SDS011;109;19.806;-70.704;2023-04-08T09:12:23;5.57;;;4.40;;
249;SDS011;109;19.806;-70.704;2023-04-08T09:15:01;5.27;;;3.97;;
249;SDS011;109;19.806;-70.704;2023-04-08T09:17:39;13.40;;;4.57;;
249;SDS011;109;19.806;-70.704;2023-04-08T09:20:10;6.50;;;4.03;;
249;SDS011;109;19.806;-70.704;2023-04-08T09:22:54;13.70;;;4.13;;
249;SDS011;109;19.806;-70.704;2023-04-08T09:25:31;7.97;;;4.13;;
249;SDS011;109;19.806;-70.704;2023-04-08T09:27:59;7.17;;;4.23;;
249;SDS011;109;19.806;-70.704;2023-04-08T09:30:34;7.30;;;3.67;;
249;SDS011;109;19.806;-70.704;2023-04-08T09:33:01;6.50;;;3.73;;
249;SDS011;109;19.806;-70.704;2023-04-08T09:35:38;16.40;;;4.10;;
249;SDS011;109;19.806;-70.704;2023-04-08T09:38:04;4.93;;;3.53;;
249;SDS011;109;19.806;-70.704;2023-04-08T09:40:38;6.60;;;4.10;;
249;SDS011;109;19.806;-70.704;2023-04-08T09:43:27;7.13;;;4.23;;
249;SDS011;109;19.806;-70.704;2023-04-08T09:46:00;6.00;;;4.50;;
249;SDS011;109;19.806;-70.704;2023-04-08T09:48:41;10.17;;;4.60;;
249;SDS011;109;19.806;-70.704;2023-04-08T09:51:21;8.03;;;4.30;;
249;SDS011;109;19.806;-70.704;2023-04-08T09:53:55;8.33;;;4.70;;
249;SDS011;109;19.806;-70.704;2023-04-08T09:57:20;6.57;;;4.73;;
249;SDS011;109;19.806;-70.704;2023-04-08T09:59:36;7.97;;;4.53;;
249;SDS011;109;19.806;-70.704;2023-04-08T10:02:24;7.37;;;4.50;;
249;SDS011;109;19.806;-70.704;2023-04-08T10:05:05;7.37;;;3.90;;
249;SDS011;109;19.806;-70.704;2023-04-08T10:07:33;6.23;;;3.90;;
249;SDS011;109;19.806;-70.704;2023-04-08T10:10:07;5.77;;;3.50;;
249;SDS011;109;19.806;-70.704;2023-04-08T10:12:37;6.60;;;3.70;;
249;SDS011;109;19.806;-70.704;2023-04-08T10:15:26;6.80;;;3.50;;
249;SDS011;109;19.806;-70.704;2023-04-08T10:23:10;8.17;;;4.10;;
249;SDS011;109;19.806;-70.704;2023-04-08T10:25:39;6.17;;;3.70;;
249;SDS011;109;19.806;-70.704;2023-04-08T10:28:22;9.57;;;3.67;;
249;SDS011;109;19.806;-70.704;2023-04-08T10:30:56;7.83;;;3.57;;
249;SDS011;109;19.806;-70.704;2023-04-08T10:33:24;8.90;;;3.80;;
249;SDS011;109;19.806;-70.704;2023-04-08T10:39:26;5.10;;;3.77;;
249;SDS011;109;19.806;-70.704;2023-04-08T10:42:00;9.50;;;3.97;;
249;SDS011;109;19.806;-70.704;2023-04-08T10:44:27;7.77;;;3.40;;
249;SDS011;109;19.806;-70.704;2023-04-08T10:47:00;10.87;;;3.33;;
249;SDS011;109;19.806;-70.704;2023-04-08T10:49:31;11.00;;;3.87;;
249;SDS011;109;19.806;-70.704;2023-04-08T10:52:06;8.23;;;3.90;;
249;SDS011;109;19.806;-70.704;2023-04-08T10:54:33;8.20;;;3.70;;
249;SDS011;109;19.806;-70.704;2023-04-08T10:57:01;11.63;;;3.80;;
249;SDS011;109;19.806;-70.704;2023-04-08T10:59:28;6.70;;;3.40;;
249;SDS011;109;19.806;-70.704;2023-04-08T11:01:59;8.67;;;3.10;;
249;SDS011;109;19.806;-70.704;2023-04-08T11:04:26;9.53;;;3.53;;
249;SDS011;109;19.806;-70.704;2023-04-08T11:06:53;6.77;;;2.70;;
249;SDS011;109;19.806;-70.704;2023-04-08T11:09:20;6.07;;;2.67;;
249;SDS011;109;19.806;-70.704;2023-04-08T11:11:47;4.20;;;2.80;;
249;SDS011;109;19.806;-70.704;2023-04-08T11:14:13;5.70;;;2.70;;
249;SDS011;109;19.806;-70.704;2023-04-08T11:16:44;5.40;;;3.40;;
249;SDS011;109;19.806;-70.704;2023-04-08T11:19:11;5.47;;;3.20;;
249;SDS011;109;19.806;-70.704;2023-04-08T11:21:38;6.23;;;3.40;;
249;SDS011;109;19.806;-70.704;2023-04-08T11:24:06;9.73;;;3.47;;
249;SDS011;109;19.806;-70.704;2023-04-08T11:26:36;5.40;;;3.93;;
249;SDS011;109;19.806;-70.704;2023-04-08T11:29:03;5.10;;;3.77;;
249;SDS011;109;19.806;-70.704;2023-04-08T11:31:31;7.47;;;3.90;;
249;SDS011;109;19.806;-70.704;2023-04-08T11:33:58;7.37;;;5.17;;
249;SDS011;109;19.806;-70.704;2023-04-08T11:36:27;10.70;;;5.03;;
249;SDS011;109;19.806;-70.704;2023-04-08T11:38:54;8.30;;;4.87;;
249;SDS011;109;19.806;-70.704;2023-04-08T11:41:21;7.27;;;4.87;;
249;SDS011;109;19.806;-70.704;2023-04-08T11:43:52;7.00;;;4.50;;
249;SDS011;109;19.806;-70.704;2023-04-08T11:46:20;8.50;;;4.93;;
249;SDS011;109;19.806;-70.704;2023-04-08T11:48:56;5.47;;;3.70;;
249;SDS011;109;19.806;-70.704;2023-04-08T11:51:24;10.07;;;4.97;;
249;SDS011;109;19.806;-70.704;2023-04-08T11:53:51;9.27;;;5.43;;
249;SDS011;109;19.806;-70.704;2023-04-08T11:56:19;11.80;;;5.77;;
249;SDS011;109;19.806;-70.704;2023-04-08T11:58:50;10.20;;;5.97;;
249;SDS011;109;19.806;-70.704;2023-04-08T12:01:17;20.43;;;6.53;;
249;SDS011;109;19.806;-70.704;2023-04-08T12:03:54;12.03;;;5.77;;
249;SDS011;109;19.806;-70.704;2023-04-08T12:06:22;10.03;;;6.30;;
249;SDS011;109;19.806;-70.704;2023-04-08T12:08:49;23.80;;;7.30;;
249;SDS011;109;19.806;-70.704;2023-04-08T12:11:16;23.80;;;8.17;;
249;SDS011;109;19.806;-70.704;2023-04-08T12:13:42;21.40;;;5.90;;
249;SDS011;109;19.806;-70.704;2023-04-08T12:16:09;21.00;;;7.17;;
249;SDS011;109;19.806;-70.704;2023-04-08T12:18:37;32.13;;;7.10;;
249;SDS011;109;19.806;-70.704;2023-04-08T12:21:03;25.70;;;7.13;;
249;SDS011;109;19.806;-70.704;2023-04-08T12:23:30;19.87;;;6.00;;
249;SDS011;109;19.806;-70.704;2023-04-08T12:25:56;19.80;;;6.07;;
249;SDS011;109;19.806;-70.704;2023-04-08T12:28:23;17.53;;;5.70;;
249;SDS011;109;19.806;-70.704;2023-04-08T12:30:49;15.13;;;6.30;;
249;SDS011;109;19.806;-70.704;2023-04-08T12:33:16;12.27;;;5.17;;
249;SDS011;109;19.806;-70.704;2023-04-08T12:35:42;18.70;;;5.73;;
249;SDS011;109;19.806;-70.704;2023-04-08T12:38:09;17.30;;;5.20;;
249;SDS011;109;19.806;-70.704;2023-04-08T12:40:36;11.10;;;4.70;;
249;SDS011;109;19.806;-70.704;2023-04-08T12:43:02;8.40;;;4.40;;
249;SDS011;109;19.806;-70.704;2023-04-08T12:45:28;6.97;;;4.20;;
249;SDS011;109;19.806;-70.704;2023-04-08T12:47:55;9.30;;;4.63;;
249;SDS011;109;19.806;-70.704;2023-04-08T12:50:22;6.53;;;4.00;;
249;SDS011;109;19.806;-70.704;2023-04-08T12:52:48;16.57;;;4.37;;
249;SDS011;109;19.806;-70.704;2023-04-08T12:55:14;14.10;;;4.40;;
249;SDS011;109;19.806;-70.704;2023-04-08T12:57:42;12.63;;;3.70;;
249;SDS011;109;19.806;-70.704;2023-04-08T13:00:09;18.40;;;4.43;;
249;SDS011;109;19.806;-70.704;2023-04-08T13:02:36;15.53;;;4.53;;
249;SDS011;109;19.806;-70.704;2023-04-08T13:05:03;15.13;;;4.73;;
249;SDS011;109;19.806;-70.704;2023-04-08T13:07:29;12.63;;;4.13;;
249;SDS011;109;19.806;-70.704;2023-04-08T13:09:56;14.97;;;4.10;;
249;SDS011;109;19.806;-70.704;2023-04-08T13:12:22;10.13;;;4.00;;
249;SDS011;109;19.806;-70.704;2023-04-08T13:14:49;23.60;;;4.77;;
249;SDS011;109;19.806;-70.704;2023-04-08T13:17:15;14.40;;;4.20;;
249;SDS011;109;19.806;-70.704;2023-04-08T13:19:42;19.63;;;4.13;;
249;SDS011;109;19.806;-70.704;2023-04-08T13:22:08;18.17;;;4.63;;
249;SDS011;109;19.806;-70.704;2023-04-08T13:24:35;20.87;;;4.90;;
249;SDS011;109;19.806;-70.704;2023-04-08T13:27:02;18.13;;;5.33;;
249;SDS011;109;19.806;-70.704;2023-04-08T13:29:28;15.43;;;4.60;;
249;SDS011;109;19.806;-70.704;2023-04-08T13:31:55;24.63;;;5.93;;
249;SDS011;109;19.806;-70.704;2023-04-08T13:34:21;19.27;;;5.33;;
249;SDS011;109;19.806;-70.704;2023-04-08T13:36:48;28.03;;;5.40;;
249;SDS011;109;19.806;-70.704;2023-04-08T13:39:14;24.63;;;5.23;;
249;SDS011;109;19.806;-70.704;2023-04-08T13:41:41;23.33;;;4.40;;
249;SDS011;109;19.806;-70.704;2023-04-08T13:44:07;30.50;;;6.50;;
249;SDS011;109;19.806;-70.704;2023-04-08T13:46:35;22.93;;;5.20;;
249;SDS011;109;19.806;-70.704;2023-04-08T13:49:01;22.37;;;4.20;;
249;SDS011;109;19.806;-70.704;2023-04-08T13:51:28;19.23;;;4.00;;
249;SDS011;109;19.806;-70.704;2023-04-08T13:53:54;10.27;;;3.70;;
249;SDS011;109;19.806;-70.704;2023-04-08T13:56:21;12.27;;;3.33;;
249;SDS011;109;19.806;-70.704;2023-04-08T13:58:48;15.50;;;3.37;;
249;SDS011;109;19.806;-70.704;2023-04-08T14:01:14;10.70;;;3.80;;
249;SDS011;109;19.806;-70.704;2023-04-08T14:03:41;17.63;;;3.93;;
249;SDS011;109;19.806;-70.704;2023-04-08T14:06:08;15.20;;;4.43;;
249;SDS011;109;19.806;-70.704;2023-04-08T14:08:34;10.10;;;3.40;;
249;SDS011;109;19.806;-70.704;2023-04-08T14:11:01;16.70;;;4.33;;
249;SDS011;109;19.806;-70.704;2023-04-08T14:13:27;8.73;;;3.60;;
249;SDS011;109;19.806;-70.704;2023-04-08T14:15:54;29.73;;;4.70;;
249;SDS011;109;19.806;-70.704;2023-04-08T14:18:22;11.67;;;3.70;;
249;SDS011;109;19.806;-70.704;2023-04-08T14:20:50;15.40;;;3.27;;
249;SDS011;109;19.806;-70.704;2023-04-08T14:23:17;11.63;;;3.30;;
249;SDS011;109;19.806;-70.704;2023-04-08T14:25:43;28.43;;;4.23;;
249;SDS011;109;19.806;-70.704;2023-04-08T14:28:10;15.30;;;4.10;;
249;SDS011;109;19.806;-70.704;2023-04-08T14:30:36;10.67;;;3.30;;
249;SDS011;109;19.806;-70.704;2023-04-08T14:33:03;15.13;;;3.90;;
249;SDS011;109;19.806;-70.704;2023-04-08T14:35:29;15.13;;;4.30;;
249;SDS011;109;19.806;-70.704;2023-04-08T14:37:56;17.00;;;4.43;;
249;SDS011;109;19.806;-70.704;2023-04-08T14:40:23;16.10;;;4.33;;
249;SDS011;109;19.806;-70.704;2023-04-08T14:42:49;23.77;;;4.87;;
249;SDS011;109;19.806;-70.704;2023-04-08T14:45:16;6.87;;;3.50;;
249;SDS011;109;19.806;-70.704;2023-04-08T14:47:42;10.10;;;3.90;;
249;SDS011;109;19.806;-70.704;2023-04-08T14:50:09;7.40;;;3.43;;
249;SDS011;109;19.806;-70.704;2023-04-08T14:52:36;10.17;;;3.90;;
249;SDS011;109;19.806;-70.704;2023-04-08T14:55:02;13.83;;;4.50;;
249;SDS011;109;19.806;-70.704;2023-04-08T14:57:29;30.80;;;4.47;;
249;SDS011;109;19.806;-70.704;2023-04-08T14:59:56;13.77;;;3.90;;
249;SDS011;109;19.806;-70.704;2023-04-08T15:02:24;8.83;;;3.37;;
249;SDS011;109;19.806;-70.704;2023-04-08T15:04:50;11.63;;;3.57;;
249;SDS011;109;19.806;-70.704;2023-04-08T15:07:17;12.27;;;3.90;;
249;SDS011;109;19.806;-70.704;2023-04-08T15:09:43;15.40;;;4.00;;
249;SDS011;109;19.806;-70.704;2023-04-08T15:12:10;8.60;;;3.77;;
249;SDS011;109;19.806;-70.704;2023-04-08T15:14:36;7.23;;;3.37;;
249;SDS011;109;19.806;-70.704;2023-04-08T15:17:03;9.53;;;3.70;;
249;SDS011;109;19.806;-70.704;2023-04-08T15:19:29;9.90;;;3.47;;
249;SDS011;109;19.806;-70.704;2023-04-08T15:21:56;15.33;;;3.90;;
249;SDS011;109;19.806;-70.704;2023-04-08T15:24:22;15.83;;;4.73;;
249;SDS011;109;19.806;-70.704;2023-04-08T15:26:49;12.60;;;3.80;;
249;SDS011;109;19.806;-70.704;2023-04-08T15:29:15;8.10;;;3.57;;
249;SDS011;109;19.806;-70.704;2023-04-08T15:31:42;13.77;;;4.30;;
249;SDS011;109;19.806;-70.704;2023-04-08T15:34:08;23.47;;;4.07;;
249;SDS011;109;19.806;-70.704;2023-04-08T15:36:35;15.17;;;4.00;;
249;SDS011;109;19.806;-70.704;2023-04-08T15:39:02;22.07;;;5.13;;
249;SDS011;109;19.806;-70.704;2023-04-08T15:41:28;17.60;;;5.20;;
249;SDS011;109;19.806;-70.704;2023-04-08T15:43:56;36.60;;;5.13;;
249;SDS011;109;19.806;-70.704;2023-04-08T15:46:23;25.30;;;6.17;;
249;SDS011;109;19.806;-70.704;2023-04-08T15:48:50;40.63;;;6.77;;